Time;durP1;ratioP1;P1;durP2;ratioP2;P2;SDS_P1;SDS_P2;PMS_P1;PMS_P2;Temp;Humidity;BMP_temperature;BMP_pressure;BME280_temperature;BME280_humidity;BME280_pressure;Samples;Min_cycle;Max_cycle;Signal;HPM_P1;HPM_P2
2024/01/09 00:01:43;;;;;;;27.20;11.90;;;-6.00;99.90;;;;;;4996386;28;20390;-61
2024/01/09 00:04:09;;;;;;;27.08;11.25;;;-6.00;99.90;;;;;;4996685;28;20023;-61
2024/01/09 00:06:35;;;;;;;29.05;11.52;;;-6.10;99.90;;;;;;4996645;28;20018;-61
2024/01/09 00:09:02;;;;;;;34.22;12.07;;;-6.10;99.90;;;;;;4996313;28;20026;-61
2024/01/09 00:11:28;;;;;;;26.50;11.07;;;-6.10;99.90;;;;;;4996702;28;20023;-61
2024/01/09 00:13:55;;;;;;;29.00;11.45;;;-6.10;99.90;;;;;;4996807;28;20042;-61
2024/01/09 00:16:21;;;;;;;30.73;11.85;;;-6.10;99.90;;;;;;4996622;28;20058;-61
2024/01/09 00:18:53;;;;;;;29.00;11.90;;;-6.10;99.90;;;;;;4996496;28;20038;-61
2024/01/09 00:21:19;;;;;;;29.58;11.10;;;-6.10;99.90;;;;;;4996437;28;20061;-61
2024/01/09 00:23:45;;;;;;;33.63;12.10;;;-6.10;99.90;;;;;;4996494;28;20034;-61
2024/01/09 00:26:10;;;;;;;35.35;13.10;;;-6.10;99.90;;;;;;4994973;28;20030;-61
2024/01/09 00:28:36;;;;;;;35.15;12.18;;;-6.20;99.90;;;;;;4996266;28;20030;-65
2024/01/09 00:31:01;;;;;;;28.92;10.88;;;-6.20;99.90;;;;;;4996151;28;20065;-61
2024/01/09 00:33:27;;;;;;;30.58;11.32;;;-6.20;99.90;;;;;;4994842;28;20125;-61
2024/01/09 00:35:53;;;;;;;33.45;11.27;;;-6.20;99.90;;;;;;4995021;28;20126;-62
2024/01/09 00:38:18;;;;;;;28.83;11.13;;;-6.20;99.90;;;;;;4997513;28;20034;-61
2024/01/09 00:40:45;;;;;;;31.70;13.20;;;-6.30;99.90;;;;;;4997011;28;20034;-61
2024/01/09 00:43:11;;;;;;;29.70;11.57;;;-6.30;99.90;;;;;;4996100;28;20026;-61
2024/01/09 00:45:37;;;;;;;26.63;11.23;;;-4.30;99.90;;;;;;4995906;28;20034;-61
2024/01/09 00:48:03;;;;;;;31.10;12.75;;;-6.30;99.90;;;;;;4995898;28;20528;-61
2024/01/09 00:50:28;;;;;;;31.65;13.00;;;-6.30;99.90;;;;;;4995739;28;20034;-61
2024/01/09 00:52:54;;;;;;;25.85;11.32;;;-6.40;99.90;;;;;;4995752;28;20081;-61
2024/01/09 00:55:19;;;;;;;26.95;11.35;;;-6.40;99.90;;;;;;4995733;28;20505;-61
2024/01/09 00:57:45;;;;;;;31.35;12.05;;;-6.40;99.90;;;;;;4994379;28;20383;-61
2024/01/09 01:00:11;;;;;;;31.00;12.60;;;-6.40;99.90;;;;;;4995293;28;20031;-61
2024/01/09 01:02:37;;;;;;;27.63;11.75;;;-6.40;99.90;;;;;;4995587;28;20085;-61
2024/01/09 01:05:03;;;;;;;35.70;13.38;;;-6.40;99.90;;;;;;4995556;28;20490;-61
2024/01/09 01:07:28;;;;;;;30.30;12.02;;;-6.40;99.90;;;;;;4994270;28;20022;-61
2024/01/09 01:09:54;;;;;;;31.30;12.02;;;-6.40;99.90;;;;;;4994162;28;20041;-61
2024/01/09 01:12:19;;;;;;;30.33;12.85;;;-6.50;99.90;;;;;;4995394;28;20030;-61
2024/01/09 01:14:45;;;;;;;29.80;12.00;;;-4.60;99.90;;;;;;4995067;28;20481;-61
2024/01/09 01:17:11;;;;;;;32.45;12.68;;;-6.50;99.90;;;;;;4995333;28;20026;-61
2024/01/09 01:19:36;;;;;;;27.17;10.98;;;-6.60;99.90;;;;;;4995038;28;20030;-61
2024/01/09 01:22:02;;;;;;;26.05;11.32;;;-6.50;99.90;;;;;;4995291;28;20120;-61
2024/01/09 01:24:28;;;;;;;32.65;12.77;;;-6.60;99.90;;;;;;4993963;28;20052;-61
2024/01/09 01:26:54;;;;;;;28.30;11.45;;;-4.40;99.90;;;;;;4995406;28;20030;-61
2024/01/09 01:29:19;;;;;;;29.88;12.07;;;-6.50;99.90;;;;;;4993881;28;20081;-61
2024/01/09 01:31:45;;;;;;;29.92;11.82;;;-6.60;99.90;;;;;;4994719;28;20034;-61
2024/01/09 01:34:11;;;;;;;35.88;12.95;;;-5.90;99.90;;;;;;4993776;28;20027;-61
2024/01/09 01:36:37;;;;;;;31.70;11.15;;;-6.70;99.90;;;;;;4995046;28;20037;-61
2024/01/09 01:39:02;;;;;;;31.85;11.95;;;-6.80;99.90;;;;;;4993683;28;20056;-61
2024/01/09 01:41:28;;;;;;;30.80;11.88;;;-6.80;99.90;;;;;;4994616;28;20030;-61
2024/01/09 01:43:54;;;;;;;36.53;13.57;;;-6.80;99.90;;;;;;4995093;28;20027;-61
2024/01/09 01:46:20;;;;;;;37.53;12.07;;;-6.90;99.90;;;;;;4993593;28;20100;-61
2024/01/09 01:48:46;;;;;;;27.85;11.35;;;-4.40;99.90;;;;;;4993925;28;20522;-61
2024/01/09 01:51:12;;;;;;;29.65;10.70;;;-6.90;99.90;;;;;;4994968;28;20034;-61
2024/01/09 01:53:38;;;;;;;32.78;11.93;;;-6.90;99.90;;;;;;4994775;28;20030;-61
2024/01/09 01:56:04;;;;;;;35.88;11.82;;;-7.00;99.90;;;;;;4994235;28;20061;-61
2024/01/09 01:58:32;;;;;;;32.38;11.93;;;-7.00;99.90;;;;;;4994643;28;20050;-61
2024/01/09 02:00:59;;;;;;;28.95;11.50;;;-7.00;99.90;;;;;;4994626;28;20030;-61
2024/01/09 02:03:25;;;;;;;29.80;11.45;;;-7.00;99.90;;;;;;4993286;28;20041;-61
2024/01/09 02:05:53;;;;;;;26.90;11.07;;;-7.00;99.90;;;;;;4993246;28;20065;-61
2024/01/09 02:08:24;;;;;;;28.15;10.98;;;-7.10;99.90;;;;;;4993452;28;20026;-61
2024/01/09 02:10:51;;;;;;;29.55;12.43;;;-7.10;99.90;;;;;;4994500;28;20037;-61
2024/01/09 02:13:16;;;;;;;37.70;12.45;;;-7.10;99.90;;;;;;4994185;28;20030;-61
2024/01/09 02:15:42;;;;;;;30.85;11.63;;;-7.10;99.90;;;;;;4994545;28;20041;-61
2024/01/09 02:18:08;;;;;;;31.63;11.88;;;-4.50;99.90;;;;;;4993658;28;20117;-61
2024/01/09 02:20:34;;;;;;;27.98;11.25;;;-7.20;99.90;;;;;;4994572;28;20042;-61
2024/01/09 02:23:00;;;;;;;28.67;11.32;;;-7.20;99.90;;;;;;4994107;28;20034;-61
2024/01/09 02:25:27;;;;;;;39.95;12.45;;;-7.20;99.90;;;;;;4994408;28;20363;-61
2024/01/09 02:28:06;;;;;;;30.52;13.30;;;-7.20;99.90;;;;;;4994324;28;20421;-61
2024/01/09 02:30:32;;;;;;;32.65;12.02;;;-7.20;99.90;;;;;;4994382;28;20093;-61
2024/01/09 02:32:59;;;;;;;25.00;10.70;;;-7.10;99.90;;;;;;4994575;28;20062;-61
2024/01/09 02:35:25;;;;;;;28.77;12.98;;;-7.10;99.90;;;;;;4994311;28;20033;-61
2024/01/09 02:37:50;;;;;;;32.10;12.27;;;-7.10;99.90;;;;;;4993977;28;20026;-61
2024/01/09 02:40:16;;;;;;;28.98;11.05;;;-7.20;99.90;;;;;;4993014;28;20121;-61
2024/01/09 02:42:41;;;;;;;27.45;11.57;;;-5.50;99.90;;;;;;4993937;28;20030;-61
2024/01/09 02:45:07;;;;;;;28.65;10.07;;;-7.20;99.90;;;;;;4992949;28;20116;-61
2024/01/09 02:47:33;;;;;;;26.00;10.65;;;-7.20;99.90;;;;;;4994231;28;20027;-61
2024/01/09 02:49:58;;;;;;;30.02;11.00;;;-7.30;99.90;;;;;;4994084;28;20026;-61
2024/01/09 02:52:24;;;;;;;35.88;10.70;;;-7.30;99.90;;;;;;4993825;28;20034;-61
2024/01/09 02:54:49;;;;;;;29.02;10.95;;;-7.30;99.90;;;;;;4993746;28;20050;-61
2024/01/09 02:57:15;;;;;;;28.05;10.45;;;-7.30;99.90;;;;;;4994085;28;20061;-61
2024/01/09 02:59:41;;;;;;;30.08;11.27;;;-7.30;99.90;;;;;;4993247;28;20463;-61
2024/01/09 03:02:07;;;;;;;32.85;12.38;;;-4.70;99.90;;;;;;4993683;28;20049;-61
2024/01/09 03:04:32;;;;;;;32.03;11.43;;;-7.40;99.90;;;;;;4992798;28;20062;-61
2024/01/09 03:06:58;;;;;;;26.40;10.88;;;-7.50;99.90;;;;;;4993791;28;20433;-61
2024/01/09 03:09:24;;;;;;;35.92;12.10;;;-7.40;99.90;;;;;;4993734;28;20061;-61
2024/01/09 03:11:50;;;;;;;32.95;11.10;;;-7.50;99.90;;;;;;4992697;28;20065;-61
2024/01/09 03:14:16;;;;;;;33.38;11.77;;;-7.50;99.90;;;;;;4994494;28;20521;-62
2024/01/09 03:16:41;;;;;;;30.80;11.70;;;-7.50;99.90;;;;;;4994714;28;20490;-62
2024/01/09 03:19:07;;;;;;;32.88;12.20;;;-6.10;99.90;;;;;;4996409;28;20077;-62
2024/01/09 03:21:33;;;;;;;29.50;12.13;;;-7.50;99.90;;;;;;4996252;28;20118;-61
2024/01/09 03:23:58;;;;;;;29.23;11.60;;;-7.50;99.90;;;;;;4996160;28;20023;-61
2024/01/09 03:26:24;;;;;;;28.52;11.10;;;-7.50;99.90;;;;;;4997466;28;20026;-61
2024/01/09 03:28:49;;;;;;;27.27;11.98;;;-7.50;99.90;;;;;;4997730;28;20073;-61
2024/01/09 03:31:22;;;;;;;26.95;11.85;;;-7.60;99.90;;;;;;4997311;28;20026;-61
2024/01/09 03:33:48;;;;;;;31.65;10.38;;;-7.60;99.90;;;;;;4997294;28;20116;-61
2024/01/09 03:36:15;;;;;;;35.17;12.52;;;-7.60;99.90;;;;;;4997243;28;20081;-61
2024/01/09 03:38:41;;;;;;;30.38;11.70;;;-7.60;99.90;;;;;;4995919;28;20023;-61
2024/01/09 03:41:07;;;;;;;40.88;12.27;;;-7.60;99.90;;;;;;4995843;28;20359;-61
2024/01/09 03:43:33;;;;;;;42.28;12.32;;;-7.70;99.90;;;;;;4996815;28;20082;-61
2024/01/09 03:45:59;;;;;;;34.45;12.43;;;-7.70;99.90;;;;;;4997141;28;20109;-61
2024/01/09 03:48:24;;;;;;;30.50;12.05;;;-7.70;99.90;;;;;;4996717;28;20027;-61
2024/01/09 03:50:50;;;;;;;33.63;12.05;;;-7.70;99.90;;;;;;4996992;28;20041;-61
2024/01/09 03:53:16;;;;;;;28.77;11.23;;;-7.70;99.90;;;;;;4997044;28;20064;-61
2024/01/09 03:55:41;;;;;;;28.02;11.38;;;-7.80;99.90;;;;;;4995178;28;20086;-61
2024/01/09 03:58:07;;;;;;;35.75;11.65;;;-7.80;99.90;;;;;;4995237;28;20030;-61
2024/01/09 04:00:33;;;;;;;32.00;11.07;;;-7.80;99.90;;;;;;4995523;28;20030;-61
2024/01/09 04:03:00;;;;;;;27.88;11.63;;;-7.80;99.90;;;;;;4996727;28;20455;-61
2024/01/09 04:05:25;;;;;;;31.13;12.02;;;-7.80;99.90;;;;;;4995398;28;20469;-61
2024/01/09 04:07:51;;;;;;;39.58;12.30;;;-7.80;99.90;;;;;;4996540;28;20072;-61
2024/01/09 04:10:17;;;;;;;35.33;12.88;;;-7.80;99.90;;;;;;4996645;28;20034;-61
2024/01/09 04:12:42;;;;;;;39.35;12.30;;;-7.60;99.90;;;;;;4996769;28;20030;-61
2024/01/09 04:15:08;;;;;;;27.35;11.10;;;-7.80;99.90;;;;;;4995287;28;20381;-61
2024/01/09 04:17:34;;;;;;;32.55;11.48;;;-7.80;99.90;;;;;;4996601;28;20037;-61
2024/01/09 04:20:02;;;;;;;31.10;12.00;;;-7.80;99.90;;;;;;4996538;28;20034;-61
2024/01/09 04:22:27;;;;;;;36.30;12.73;;;-7.80;99.90;;;;;;4995157;28;20493;-61
2024/01/09 04:24:53;;;;;;;32.35;10.10;;;-7.80;99.90;;;;;;4996559;28;20030;-61
2024/01/09 04:27:18;;;;;;;28.98;10.88;;;-7.80;99.90;;;;;;4996547;28;20038;-61
2024/01/09 04:29:44;;;;;;;34.22;11.73;;;-7.80;99.90;;;;;;4996388;28;20034;-61
2024/01/09 04:32:10;;;;;;;31.23;11.45;;;-7.90;99.90;;;;;;4994975;28;20074;-61
2024/01/09 04:34:36;;;;;;;50.17;13.55;;;-7.80;99.90;;;;;;4995680;28;20113;-61
2024/01/09 04:37:02;;;;;;;37.20;11.23;;;-7.90;99.90;;;;;;4995835;28;20491;-61
2024/01/09 04:39:28;;;;;;;30.98;11.70;;;-7.90;99.90;;;;;;4995772;28;20103;-61
2024/01/09 04:41:53;;;;;;;36.90;12.23;;;-7.90;99.90;;;;;;4996046;28;20481;-61
2024/01/09 04:44:19;;;;;;;26.02;9.88;;;-8.00;99.90;;;;;;4996367;28;20023;-61
2024/01/09 04:46:44;;;;;;;27.30;11.57;;;-8.00;99.90;;;;;;4995877;28;20023;-61
2024/01/09 04:49:10;;;;;;;31.80;11.65;;;-6.50;99.90;;;;;;4995881;28;20466;-61
2024/01/09 04:51:36;;;;;;;39.63;10.95;;;-8.00;99.90;;;;;;4995891;28;20065;-61
2024/01/09 04:54:01;;;;;;;31.20;11.18;;;-8.00;99.90;;;;;;4995887;28;20088;-61
2024/01/09 04:56:27;;;;;;;26.10;11.13;;;-8.00;99.90;;;;;;4995337;28;20061;-61
2024/01/09 04:58:53;;;;;;;32.28;10.88;;;-8.00;99.90;;;;;;4995360;28;20027;-61
2024/01/09 05:01:22;;;;;;;33.10;12.57;;;-8.00;99.90;;;;;;4994374;28;20537;-61
2024/01/09 05:03:49;;;;;;;30.55;12.07;;;-8.00;99.90;;;;;;4995529;28;20045;-61
2024/01/09 05:06:16;;;;;;;31.35;11.23;;;-7.90;99.90;;;;;;4995521;28;20027;-61
2024/01/09 05:08:42;;;;;;;34.60;12.57;;;-7.90;99.90;;;;;;4994320;28;20030;-61
2024/01/09 05:11:08;;;;;;;33.78;12.48;;;-8.00;99.90;;;;;;4995401;28;20459;-60
2024/01/09 05:13:33;;;;;;;28.98;11.15;;;-8.10;99.90;;;;;;4995509;28;20425;-61
2024/01/09 05:15:59;;;;;;;35.45;11.27;;;-8.10;99.90;;;;;;4994559;28;20546;-61
2024/01/09 05:18:25;;;;;;;28.77;10.65;;;-8.10;99.90;;;;;;4996227;28;20062;-61
2024/01/09 05:20:51;;;;;;;42.33;13.23;;;-8.10;99.90;;;;;;4996290;28;20054;-61
2024/01/09 05:23:16;;;;;;;30.10;11.18;;;-8.00;99.90;;;;;;4995898;28;20034;-61
2024/01/09 05:25:42;;;;;;;35.22;11.75;;;-8.10;99.90;;;;;;4994707;28;20030;-63
2024/01/09 05:28:08;;;;;;;29.50;11.90;;;-8.10;99.90;;;;;;4995988;28;20025;-60
2024/01/09 05:30:34;;;;;;;29.85;11.07;;;-8.10;99.90;;;;;;4995371;28;20058;-61
2024/01/09 05:33:00;;;;;;;28.75;11.48;;;-8.10;99.90;;;;;;4995189;28;20471;-61
2024/01/09 05:35:26;;;;;;;26.27;11.73;;;-8.20;99.90;;;;;;4995069;28;20027;-61
2024/01/09 05:37:51;;;;;;;33.17;11.82;;;-8.20;99.90;;;;;;4994959;28;20026;-61
2024/01/09 05:40:17;;;;;;;32.17;11.95;;;-8.10;99.90;;;;;;4994641;28;20030;-61
2024/01/09 05:42:43;;;;;;;29.88;11.52;;;-8.10;99.90;;;;;;4995416;28;20030;-61
2024/01/09 05:45:10;;;;;;;28.58;11.02;;;-8.10;99.90;;;;;;4995221;28;20454;-61
2024/01/09 05:47:35;;;;;;;36.22;11.98;;;-8.00;99.90;;;;;;4993016;28;20117;-61
2024/01/09 05:50:01;;;;;;;40.03;12.27;;;-8.00;99.90;;;;;;4995315;28;20117;-60
2024/01/09 05:52:27;;;;;;;33.70;13.88;;;-8.10;99.90;;;;;;4993713;28;20040;-61
2024/01/09 05:54:53;;;;;;;34.40;12.00;;;-8.20;99.90;;;;;;4994895;28;20050;-62
2024/01/09 05:57:18;;;;;;;40.33;12.95;;;-6.60;99.90;;;;;;4995285;28;20026;-60
2024/01/09 05:59:44;;;;;;;33.35;11.88;;;-8.20;99.90;;;;;;4993648;28;20053;-61
2024/01/09 06:02:10;;;;;;;29.38;12.07;;;-8.20;99.90;;;;;;4994753;28;20022;-61
2024/01/09 06:04:35;;;;;;;31.60;12.38;;;-6.30;99.90;;;;;;4995120;28;20022;-60
2024/01/09 06:07:01;;;;;;;35.40;12.05;;;-8.20;99.90;;;;;;4994675;28;20028;-61
2024/01/09 06:09:27;;;;;;;28.20;11.32;;;-8.30;99.90;;;;;;4994582;28;20363;-61
2024/01/09 06:11:52;;;;;;;26.73;10.75;;;-8.30;99.90;;;;;;4993082;28;20062;-61
2024/01/09 06:14:18;;;;;;;31.25;10.68;;;-8.20;99.90;;;;;;4994876;28;20062;-61
2024/01/09 06:16:44;;;;;;;26.48;10.45;;;-8.30;99.90;;;;;;4994462;28;20085;-61
2024/01/09 06:19:09;;;;;;;36.50;11.68;;;-8.30;99.90;;;;;;4993398;28;20088;-60
2024/01/09 06:21:35;;;;;;;28.52;10.65;;;-8.30;99.90;;;;;;4993212;28;20034;-60
2024/01/09 06:24:01;;;;;;;28.88;10.85;;;-8.30;99.90;;;;;;4994420;28;20026;-60
2024/01/09 06:26:26;;;;;;;51.53;12.65;;;-8.30;99.90;;;;;;4994101;28;20030;-61
2024/01/09 06:28:52;;;;;;;34.67;11.48;;;-8.30;99.90;;;;;;4994346;28;20027;-61
2024/01/09 06:31:18;;;;;;;26.27;10.75;;;-8.30;99.90;;;;;;4994001;28;20031;-60
2024/01/09 06:33:43;;;;;;;27.58;11.50;;;-8.20;99.90;;;;;;4994300;28;20039;-60
2024/01/09 06:36:09;;;;;;;31.92;11.65;;;-8.20;99.90;;;;;;4994272;28;20023;-61
2024/01/09 06:38:34;;;;;;;30.67;11.30;;;-8.20;99.90;;;;;;4994160;28;20039;-61
2024/01/09 06:41:00;;;;;;;27.42;11.88;;;-8.20;99.90;;;;;;4994251;28;20100;-60
2024/01/09 06:43:26;;;;;;;36.28;12.93;;;-8.20;99.90;;;;;;4993948;28;20026;-61
2024/01/09 06:45:51;;;;;;;31.33;12.00;;;-8.30;99.90;;;;;;4992686;28;20112;-61
2024/01/09 06:48:17;;;;;;;35.05;12.40;;;-8.30;99.90;;;;;;4994514;28;20036;-61
2024/01/09 06:50:43;;;;;;;31.45;11.00;;;-8.20;99.90;;;;;;4992996;28;20495;-61
2024/01/09 06:53:09;;;;;;;30.98;11.52;;;-8.30;99.90;;;;;;4994117;28;20034;-60
2024/01/09 06:55:34;;;;;;;28.00;11.75;;;-8.30;99.90;;;;;;4993634;28;20046;-61
2024/01/09 06:58:02;;;;;;;36.00;13.90;;;-8.30;99.90;;;;;;4993653;28;20561;-61
2024/01/09 07:00:28;;;;;;;31.52;11.98;;;-8.30;99.90;;;;;;4998193;28;20057;-61
2024/01/09 07:02:53;;;;;;;35.28;13.07;;;-8.30;99.90;;;;;;4997815;28;20128;-61
2024/01/09 07:05:19;;;;;;;28.02;10.68;;;-8.30;99.90;;;;;;4997813;28;20078;-61
2024/01/09 07:07:44;;;;;;;30.45;10.73;;;-6.20;99.90;;;;;;4997813;28;20037;-61
2024/01/09 07:10:10;;;;;;;33.55;12.55;;;-8.30;99.90;;;;;;4997525;28;20068;-61
2024/01/09 07:12:36;;;;;;;45.50;12.45;;;-8.30;99.90;;;;;;4997727;28;20037;-61
2024/01/09 07:15:01;;;;;;;42.20;12.73;;;-8.30;99.90;;;;;;4996992;28;20026;-60
2024/01/09 07:17:27;;;;;;;31.40;13.27;;;-8.40;99.90;;;;;;4997585;28;20464;-61
2024/01/09 07:19:53;;;;;;;36.80;12.13;;;-8.40;99.90;;;;;;4997239;28;20030;-61
2024/01/09 07:22:18;;;;;;;29.63;12.07;;;-8.40;99.90;;;;;;4997322;28;20390;-60
2024/01/09 07:24:44;;;;;;;32.38;11.65;;;-8.40;99.90;;;;;;4997445;28;20026;-60
2024/01/09 07:27:09;;;;;;;36.33;12.07;;;-8.40;99.90;;;;;;4997440;28;20030;-60
2024/01/09 07:29:35;;;;;;;35.25;12.65;;;-8.30;99.90;;;;;;4997165;28;20026;-60
2024/01/09 07:32:01;;;;;;;33.42;12.80;;;-8.20;99.90;;;;;;4997273;28;20498;-60
2024/01/09 07:34:26;;;;;;;37.45;13.35;;;-8.20;99.90;;;;;;4995747;28;20467;-60
2024/01/09 07:36:52;;;;;;;35.83;13.02;;;-7.10;99.90;;;;;;4997237;28;20023;-61
2024/01/09 07:39:17;;;;;;;39.35;13.98;;;-8.20;99.90;;;;;;4995992;28;20416;-61
2024/01/09 07:41:43;;;;;;;32.17;12.43;;;-8.10;99.90;;;;;;4997148;28;20459;-60
2024/01/09 07:44:09;;;;;;;32.60;12.20;;;-8.20;99.90;;;;;;4997061;28;20026;-60
2024/01/09 07:46:34;;;;;;;34.72;12.63;;;-8.20;99.90;;;;;;4995852;28;20061;-61
2024/01/09 07:49:00;;;;;;;30.42;11.80;;;-8.10;99.90;;;;;;4997050;28;20049;-60
2024/01/09 07:51:26;;;;;;;28.40;11.98;;;-8.10;99.90;;;;;;4995973;28;20386;-60
2024/01/09 07:53:52;;;;;;;29.73;11.98;;;-8.10;99.90;;;;;;4995707;28;20081;-60
2024/01/09 07:56:18;;;;;;;43.53;13.30;;;-8.10;99.90;;;;;;4997263;28;20050;-60
2024/01/09 07:58:45;;;;;;;33.50;11.77;;;-8.10;99.90;;;;;;4996782;28;20037;-61
2024/01/09 08:01:14;;;;;;;30.67;11.88;;;-8.10;99.90;;;;;;4996785;28;20057;-60
2024/01/09 08:03:41;;;;;;;35.28;12.90;;;-8.00;99.90;;;;;;4996787;28;20027;-61
2024/01/09 08:06:17;;;;;;;31.85;13.50;;;-8.00;99.90;;;;;;4996774;28;20351;-60
2024/01/09 08:08:43;;;;;;;31.17;10.85;;;-7.90;99.90;;;;;;4996493;28;20026;-60
2024/01/09 08:11:09;;;;;;;36.70;13.02;;;-5.20;99.90;;;;;;4994433;28;20037;-60
2024/01/09 08:13:36;;;;;;;37.78;13.45;;;-7.80;99.90;;;;;;4995343;28;20057;-61
2024/01/09 08:16:01;;;;;;;33.42;12.80;;;-7.60;99.90;;;;;;4996540;28;20030;-61
2024/01/09 08:18:27;;;;;;;35.03;13.95;;;-7.50;99.90;;;;;;4996401;28;20034;-60
2024/01/09 08:20:53;;;;;;;31.98;12.75;;;-7.30;99.90;;;;;;4996217;28;20081;-61
2024/01/09 08:23:19;;;;;;;36.47;15.00;;;-7.10;99.90;;;;;;4996485;28;20029;-61
2024/01/09 08:25:45;;;;;;;39.58;13.93;;;-6.90;99.90;;;;;;4998906;28;20034;-63
2024/01/09 08:28:11;;;;;;;40.70;14.90;;;-6.90;99.90;;;;;;4996047;28;20457;-61
2024/01/09 08:30:36;;;;;;;39.42;15.00;;;-6.80;99.90;;;;;;4996660;28;20153;-60
2024/01/09 08:33:02;;;;;;;42.28;14.50;;;-6.70;99.90;;;;;;4996292;28;20030;-61
2024/01/09 08:35:28;;;;;;;38.05;14.13;;;-6.70;99.90;;;;;;4994914;28;20395;-61
2024/01/09 08:37:54;;;;;;;35.63;13.60;;;-4.70;99.90;;;;;;4996132;28;20037;-60
2024/01/09 08:40:19;;;;;;;32.42;12.45;;;-6.60;99.90;;;;;;4995826;28;20030;-60
2024/01/09 08:42:45;;;;;;;34.13;12.82;;;-6.50;99.90;;;;;;4994883;28;20027;-60
2024/01/09 08:45:13;;;;;;;37.35;12.80;;;-6.50;99.90;;;;;;4996178;28;20072;-61
2024/01/09 08:47:38;;;;;;;33.55;13.25;;;-6.40;99.90;;;;;;4995180;28;20033;-60
2024/01/09 08:50:05;;;;;;;28.33;12.10;;;-6.40;99.90;;;;;;4995909;28;20034;-60
2024/01/09 08:52:31;;;;;;;31.02;12.80;;;-6.30;99.90;;;;;;4994623;28;20034;-60
2024/01/09 08:54:56;;;;;;;32.47;13.85;;;-6.40;99.90;;;;;;4995589;28;20093;-60
2024/01/09 08:57:22;;;;;;;37.33;13.63;;;-6.60;99.90;;;;;;4995503;28;20026;-60
2024/01/09 08:59:48;;;;;;;37.33;13.32;;;-6.50;99.90;;;;;;4995961;28;20455;-60
2024/01/09 09:02:14;;;;;;;35.88;13.13;;;-6.50;99.90;;;;;;4995717;28;20030;-60
2024/01/09 09:04:40;;;;;;;35.90;13.88;;;-4.30;99.90;;;;;;4994400;28;20455;-61
2024/01/09 09:07:06;;;;;;;29.45;13.07;;;-6.30;99.90;;;;;;4995598;28;20374;-61
2024/01/09 09:09:34;;;;;;;33.15;12.25;;;-5.20;99.90;;;;;;4995512;28;20029;-61
2024/01/09 09:12:01;;;;;;;35.60;13.35;;;-5.80;99.90;;;;;;4994201;28;20455;-61
2024/01/09 09:14:26;;;;;;;36.40;14.10;;;-5.60;99.90;;;;;;4995607;28;20481;-60
2024/01/09 09:16:52;;;;;;;38.92;13.50;;;-5.70;99.90;;;;;;4995563;28;20030;-61
2024/01/09 09:19:17;;;;;;;32.83;13.60;;;-5.20;99.90;;;;;;4994254;28;20034;-61
2024/01/09 09:21:43;;;;;;;33.10;13.77;;;-2.40;99.90;;;;;;4993867;28;20066;-60
2024/01/09 09:24:09;;;;;;;35.63;13.15;;;-5.00;98.90;;;;;;4995316;28;20081;-60
2024/01/09 09:26:35;;;;;;;34.10;13.30;;;-2.60;99.20;;;;;;4994942;28;20053;-61
2024/01/09 09:29:01;;;;;;;32.55;14.60;;;-2.30;99.30;;;;;;4995230;28;20030;-61
2024/01/09 09:31:27;;;;;;;35.67;12.80;;;-4.50;97.50;;;;;;4995083;28;20045;-61
2024/01/09 09:33:54;;;;;;;38.58;15.48;;;-4.20;97.00;;;;;;4995096;28;20033;-61
2024/01/09 09:36:20;;;;;;;38.75;13.80;;;-1.70;96.80;;;;;;4994826;28;20046;-61
2024/01/09 09:38:46;;;;;;;29.50;13.40;;;-3.40;94.60;;;;;;4994992;28;20450;-61
2024/01/09 09:41:19;;;;;;;34.03;13.27;;;-2.00;93.90;;;;;;4995054;28;20026;-61
2024/01/09 09:43:56;;;;;;;35.42;14.55;;;-1.10;93.30;;;;;;4994959;28;20069;-61
2024/01/09 09:46:26;;;;;;;36.30;15.48;;;-1.90;90.70;;;;;;4994739;28;20077;-61
2024/01/09 09:48:54;;;;;;;32.45;13.90;;;-1.70;87.90;;;;;;4994846;28;20109;-61
2024/01/09 09:51:24;;;;;;;43.75;14.80;;;-1.60;86.20;;;;;;4993697;28;20038;-61
2024/01/09 09:53:50;;;;;;;40.90;16.08;;;-0.30;86.10;;;;;;4994545;28;20034;-61
2024/01/09 09:56:16;;;;;;;35.42;14.32;;;0.50;85.30;;;;;;4994898;28;20050;-61
2024/01/09 09:58:42;;;;;;;39.67;15.65;;;1.00;82.50;;;;;;4993471;28;20029;-61
2024/01/09 10:01:13;;;;;;;37.10;14.98;;;-0.80;81.00;;;;;;4994724;28;20489;-61
2024/01/09 10:04:01;;;;;;;33.47;15.57;;;-0.90;80.30;;;;;;4994433;28;20072;-60
2024/01/09 10:06:29;;;;;;;31.23;13.88;;;-0.40;81.10;;;;;;4986886;28;20495;-60
2024/01/09 10:08:56;;;;;;;30.45;13.93;;;0.80;82.20;;;;;;4994137;28;20113;-62
2024/01/09 10:11:23;;;;;;;36.03;16.10;;;-2.10;82.40;;;;;;4993266;28;20530;-61
2024/01/09 10:13:49;;;;;;;39.97;16.27;;;-2.20;84.40;;;;;;4994548;28;20032;-60
2024/01/09 10:16:15;;;;;;;40.28;15.63;;;-1.10;85.70;;;;;;4994520;28;20023;-60
2024/01/09 10:18:41;;;;;;;35.10;15.18;;;-1.40;87.20;;;;;;4993603;28;20065;-60
2024/01/09 10:21:07;;;;;;;33.67;14.20;;;-2.80;86.70;;;;;;4994791;28;20493;-60
2024/01/09 10:23:35;;;;;;;36.47;14.60;;;-0.40;88.30;;;;;;4994414;28;20026;-60
2024/01/09 10:26:02;;;;;;;47.53;15.30;;;-2.50;88.60;;;;;;4994467;28;20026;-60
2024/01/09 10:28:28;;;;;;;57.85;17.52;;;-2.30;86.60;;;;;;4993117;28;20036;-60
2024/01/09 10:30:54;;;;;;;36.10;16.10;;;-0.80;87.70;;;;;;4994458;28;20121;-60
2024/01/09 10:33:19;;;;;;;45.15;14.60;;;-2.10;86.60;;;;;;4994220;28;20027;-61
2024/01/09 10:35:45;;;;;;;51.55;14.63;;;-1.40;87.10;;;;;;4997145;28;20039;-60
2024/01/09 10:38:11;;;;;;;38.50;15.35;;;-2.60;87.50;;;;;;4998408;28;20103;-60
2024/01/09 10:40:37;;;;;;;34.03;14.63;;;-3.20;89.40;;;;;;4997430;28;20080;-60
2024/01/09 10:43:03;;;;;;;32.67;14.70;;;-1.30;91.00;;;;;;4996988;28;20109;-60
2024/01/09 10:45:31;;;;;;;37.38;13.93;;;-3.80;91.30;;;;;;4998225;28;20038;-60
2024/01/09 10:47:58;;;;;;;46.22;14.25;;;-3.90;91.80;;;;;;4998230;28;20052;-60
2024/01/09 10:50:25;;;;;;;43.10;14.50;;;-3.90;92.00;;;;;;4998057;28;20052;-60
2024/01/09 10:52:51;;;;;;;39.38;14.48;;;-3.90;92.50;;;;;;4998111;28;20030;-60
2024/01/09 10:55:18;;;;;;;40.00;14.77;;;-1.60;93.30;;;;;;4997916;28;20424;-60
2024/01/09 10:57:47;;;;;;;52.22;15.50;;;-3.90;92.80;;;;;;4998148;28;20033;-61
2024/01/09 11:00:13;;;;;;;43.65;14.48;;;-2.20;92.90;;;;;;4998390;28;20033;-61
2024/01/09 11:02:40;;;;;;;42.95;13.63;;;-4.00;92.70;;;;;;4997222;28;20077;-61
2024/01/09 11:05:07;;;;;;;33.10;14.38;;;-1.50;94.30;;;;;;4999135;28;20031;-68
2024/01/09 11:07:33;;;;;;;32.78;13.35;;;-4.00;93.20;;;;;;4997218;28;20030;-61
2024/01/09 11:10:00;;;;;;;33.85;14.75;;;-2.10;94.40;;;;;;4997672;28;20026;-63
2024/01/09 11:12:39;;;;;;;40.80;16.10;;;-1.20;95.20;;;;;;4997809;28;20030;-60
2024/01/09 11:15:15;;;;;;;33.22;15.32;;;-3.60;93.60;;;;;;4997832;28;20037;-60
2024/01/09 11:17:43;;;;;;;45.15;14.23;;;-1.90;92.90;;;;;;4998078;28;20026;-61
2024/01/09 11:20:10;;;;;;;;;;;-1.40;92.90;;;;;;4998274;28;20121;-60
2024/01/09 11:22:36;;;;;;;37.92;14.27;;;-3.80;92.60;;;;;;4997810;28;19997;-60
2024/01/09 11:25:05;;;;;;;41.53;15.35;;;-3.80;92.60;;;;;;4997851;28;20054;-60
2024/01/09 11:27:43;;;;;;;;;;;-1.70;93.80;;;;;;4997986;28;20033;-61
2024/01/09 11:30:14;;;;;;;49.28;14.57;;;-3.70;93.00;;;;;;4996404;28;19937;-61
2024/01/09 11:32:41;;;;;;;32.92;14.25;;;-3.80;92.70;;;;;;4996715;28;20521;-61
2024/01/09 11:35:12;;;;;;;38.40;14.05;;;-2.80;92.90;;;;;;4997671;28;20030;-61
2024/01/09 11:37:39;;;;;;;41.85;14.38;;;-3.50;92.70;;;;;;4997121;28;20035;-61
2024/01/09 11:40:10;;;;;;;37.20;14.25;;;-3.20;92.90;;;;;;4998197;28;20467;-61
2024/01/09 11:42:44;;;;;;;39.80;15.50;;;-3.10;91.40;;;;;;4998952;28;20026;-61
2024/01/09 11:45:11;;;;;;;37.35;14.38;;;-3.10;91.20;;;;;;4996719;28;20482;-61
2024/01/09 11:47:38;;;;;;;75.97;18.53;;;-3.10;91.00;;;;;;4997151;28;20027;-61
2024/01/09 11:50:10;;;;;;;42.70;13.45;;;-2.60;91.10;;;;;;4997231;28;20517;-61
2024/01/09 11:52:37;;;;;;;31.83;12.90;;;-2.40;90.30;;;;;;4997164;28;20034;-61
2024/01/09 11:55:10;;;;;;;40.03;15.15;;;-2.30;88.60;;;;;;4995640;28;20054;-61
2024/01/09 11:57:43;;;;;;;37.03;14.48;;;-2.10;89.00;;;;;;4996954;28;20026;-63
2024/01/09 12:00:10;;;;;;;40.70;15.38;;;-2.00;88.40;;;;;;4995584;28;20521;-60
2024/01/09 12:02:36;;;;;;;39.33;13.65;;;-2.00;88.80;;;;;;4996905;28;20040;-61
2024/01/09 12:05:05;;;;;;;32.95;14.82;;;-0.30;88.90;;;;;;4996728;28;20089;-61
2024/01/09 12:07:33;;;;;;;46.63;14.65;;;-2.00;89.30;;;;;;4996743;28;20105;-61
2024/01/09 12:10:01;;;;;;;36.22;14.82;;;-1.90;90.00;;;;;;4996643;28;20026;-60
2024/01/09 12:12:27;;;;;;;40.70;15.40;;;-1.80;90.10;;;;;;4995541;28;20041;-61
2024/01/09 12:14:57;;;;;;;34.50;14.25;;;-1.00;87.20;;;;;;4996882;28;20105;-61
2024/01/09 12:17:27;;;;;;;32.97;16.52;;;-2.30;87.60;;;;;;4996704;28;20061;-60
2024/01/09 12:19:53;;;;;;;35.83;14.70;;;-1.10;89.10;;;;;;4996469;28;20058;-61
2024/01/09 12:22:22;;;;;;;43.20;14.05;;;-1.30;89.40;;;;;;4996434;28;20030;-60
2024/01/09 12:24:53;;;;;;;32.33;13.80;;;-1.80;90.10;;;;;;4996409;28;20045;-61